Time;durP1;ratioP1;P1;durP2;ratioP2;P2;SDS_P1;SDS_P2;PMS_P1;PMS_P2;Temp;Humidity;BMP_temperature;BMP_pressure;BME280_temperature;BME280_humidity;BME280_pressure;Samples;Min_cycle;Max_cycle;Signal;HPM_P1;HPM_P2
2023/01/03 00:01:01;;;;;;;;;70.75;54.25;;;;;5.21;74.74;102290.53;146608;578;46912;-67
2023/01/03 00:03:55;;;;;;;;;68.25;51.00;;;;;5.24;75.02;102296.00;146615;631;45021;-66
2023/01/03 00:06:58;;;;;;;;;64.50;51.00;;;;;5.19;74.53;102289.47;146609;569;46016;-66
2023/01/03 00:09:56;;;;;;;;;75.00;58.00;;;;;5.11;74.37;102285.28;146613;635;46020;-66
2023/01/03 00:12:49;;;;;;;;;68.75;53.50;;;;;5.08;74.67;102292.69;146612;584;46012;-67
2023/01/03 00:15:51;;;;;;;;;80.33;63.00;;;;;5.09;75.21;102291.91;146615;605;46020;-66
2023/01/03 00:19:02;;;;;;;;;;;;;;;;;;;;;
2023/01/03 00:22:03;;;;;;;;;98.00;80.67;;;;;5.08;75.12;102287.53;146621;578;46020;-67
2023/01/03 00:25:06;;;;;;;;;88.33;73.67;;;;;5.14;75.02;102293.28;146615;596;46017;-67
2023/01/03 00:28:02;;;;;;;;;85.67;72.67;;;;;5.19;75.64;102286.91;146620;619;46010;-66
2023/01/03 00:31:00;;;;;;;;;75.33;58.33;;;;;5.22;75.42;102286.31;146614;579;46031;-66
2023/01/03 00:34:08;;;;;;;;;;;;;;;;;;;;;
2023/01/03 00:37:00;;;;;;;;;56.75;45.75;;;;;5.33;75.32;102295.97;146609;613;46016;-67
2023/01/03 00:39:58;;;;;;;;;44.50;33.75;;;;;5.40;74.54;102290.66;146613;581;46010;-68
2023/01/03 00:46:25;;;;;;;;;38.50;30.50;;;;;5.45;74.06;102292.03;146608;639;46020;-68
2023/01/03 00:49:26;;;;;;;;;27.75;24.00;;;;;5.46;73.73;102282.62;146611;618;46016;-67
2023/01/03 00:52:21;;;;;;;;;19.50;16.25;;;;;5.41;73.26;102291.56;146612;628;46010;-67
2023/01/03 00:55:17;;;;;;;;;14.00;14.00;;;;;5.37;73.01;102287.78;146605;624;48012;-67
2023/01/03 00:58:11;;;;;;;;;10.00;10.00;;;;;5.38;73.74;102283.56;146614;595;46020;-67
2023/01/03 01:01:30;;;;;;;;;17.50;13.75;;;;;3.67;73.36;101983.47;146610;741;46017;-67
2023/01/03 01:04:53;;;;;;;;;12.00;9.50;;;;;5.27;73.35;102277.37;146616;663;46010;-65
2023/01/03 01:07:50;;;;;;;;;8.75;8.75;;;;;5.21;74.73;102274.22;146618;580;46016;-66
2023/01/03 01:11:00;;;;;;;;;11.75;9.75;;;;;5.20;74.29;102274.94;146621;561;46020;-64
2023/01/03 01:13:58;;;;;;;;;12.25;10.00;;;;;5.19;74.61;102276.63;146615;602;46016;-66
2023/01/03 01:17:05;;;;;;;;;9.00;9.00;;;;;5.23;75.54;102278.75;146611;579;46011;-69
2023/01/03 01:20:01;;;;;;;;;11.50;9.00;;;;;5.31;75.21;102269.19;146619;570;46012;-69
2023/01/03 01:23:04;;;;;;;;;11.25;9.00;;;;;5.36;75.35;102260.28;146621;565;46021;-69
2023/01/03 01:26:07;;;;;;;;;13.75;11.75;;;;;5.52;74.35;102268.69;146616;615;46012;-67
2023/01/03 01:29:02;;;;;;;;;28.75;24.75;;;;;5.61;74.30;102263.53;146614;627;46010;-68
2023/01/03 01:32:00;;;;;;;;;25.25;22.75;;;;;5.67;73.54;102261.53;146610;565;46017;-68
2023/01/03 01:34:56;;;;;;;;;33.50;28.50;;;;;5.69;72.73;102259.09;146616;563;46010;-66
2023/01/03 01:37:50;;;;;;;;;18.75;16.50;;;;;5.68;71.78;102254.72;146610;565;47913;-66
2023/01/03 01:40:45;;;;;;;;;37.75;31.00;;;;;5.63;72.02;102255.94;146613;586;46020;-66
2023/01/03 01:48:01;;;;;;;;;45.25;35.75;;;;;3.67;71.97;101924.47;146614;614;46010;-67
2023/01/03 01:51:07;;;;;;;;;47.50;37.50;;;;;5.49;72.25;102247.81;146611;627;46012;-69
2023/01/03 01:54:40;;;;;;;;;44.00;36.25;;;;;5.46;72.81;102247.53;146616;572;46021;-68
2023/01/03 01:57:47;;;;;;;;;31.50;27.25;;;;;5.42;72.91;102241.91;146611;758;46014;-67
2023/01/03 02:00:50;;;;;;;;;27.75;23.75;;;;;5.36;72.65;102254.19;146614;583;46021;-68
2023/01/03 02:04:05;;;;;;;;;21.25;20.00;;;;;5.28;72.03;102243.19;146613;635;46016;-68
2023/01/03 02:07:17;;;;;;;;;29.25;22.25;;;;;5.17;72.08;102246.34;146615;622;46021;-68
2023/01/03 02:10:10;;;;;;;;;25.00;22.25;;;;;5.04;73.11;102250.31;146612;579;46016;-67
2023/01/03 02:13:45;;;;;;;;;27.75;21.75;;;;;4.95;73.27;102249.41;146615;579;46010;-68
2023/01/03 02:17:26;;;;;;;;;25.50;23.00;;;;;4.91;73.49;102246.41;146614;566;46016;-68
2023/01/03 02:20:56;;;;;;;;;14.25;14.00;;;;;4.87;74.66;102235.81;146612;570;46012;-70
2023/01/03 02:24:24;;;;;;;;;19.75;16.50;;;;;4.76;74.40;102243.22;146613;640;46016;-69
2023/01/03 02:28:06;;;;;;;;;18.50;15.00;;;;;4.72;74.95;102236.87;146614;606;46010;-69
2023/01/03 02:31:41;;;;;;;;;17.25;17.00;;;;;1.49;74.67;101663.69;146613;724;46012;-68
2023/01/03 02:35:26;;;;;;;;;14.75;12.50;;;;;1.45;74.23;101661.56;146615;607;46014;-66
2023/01/03 02:39:19;;;;;;;;;;;;;;;;;;;;;
2023/01/03 02:42:57;;;;;;;;;26.75;25.25;;;;;3.05;74.06;101929.41;146615;591;46020;-68
2023/01/03 02:46:19;;;;;;;;;26.75;23.75;;;;;1.18;72.85;101606.00;146610;585;46016;-70
2023/01/03 02:49:56;;;;;;;;;18.75;15.75;;;;;1.53;72.94;101674.41;146616;565;46020;-68
2023/01/03 02:52:54;;;;;;;;;18.50;13.25;;;;;4.70;73.61;102240.06;146613;633;46012;-67
2023/01/03 02:56:01;;;;;;;;;15.50;15.50;;;;;4.64;73.54;102250.63;146613;631;46020;-66
2023/01/03 02:58:59;;;;;;;;;12.25;11.75;;;;;4.56;73.43;102237.03;146613;604;46013;-66
2023/01/03 03:02:04;;;;;;;;;14.50;12.00;;;;;4.49;73.22;102232.06;146615;687;46020;-68
2023/01/03 03:05:06;;;;;;;;;16.25;14.75;;;;;4.43;73.72;102236.56;146613;629;46017;-68
2023/01/03 03:08:03;;;;;;;;;13.75;12.00;;;;;4.44;73.83;102235.81;146615;664;47010;-67
2023/01/03 03:15:17;;;;;;;;;18.00;15.75;;;;;4.49;72.83;102249.12;146607;657;47013;-67
2023/01/03 03:18:20;;;;;;;;;28.75;24.00;;;;;4.45;73.01;102241.84;146612;594;46016;-69
2023/01/03 03:24:51;;;;;;;;;38.00;32.25;;;;;4.32;74.47;102235.47;146612;616;46014;-70
2023/01/03 03:31:26;;;;;;;;;28.25;26.75;;;;;4.35;75.17;102233.22;146611;652;46012;-68
2023/01/03 03:34:38;;;;;;;;;23.75;18.25;;;;;4.34;74.94;102233.09;146616;629;46020;-67
2023/01/03 03:37:41;;;;;;;;;16.50;15.50;;;;;4.34;75.45;102238.22;146616;624;46915;-67
2023/01/03 03:45:03;;;;;;;;;14.75;12.75;;;;;4.25;74.92;102237.28;146616;579;46017;-67
2023/01/03 03:48:15;;;;;;;;;19.50;16.00;;;;;4.24;75.22;102235.50;146620;598;46020;-68
2023/01/03 03:51:21;;;;;;;;;15.00;14.50;;;;;4.24;75.55;102228.69;146619;600;46012;-68
2023/01/03 03:54:28;;;;;;;;;18.25;13.75;;;;;4.24;75.01;102235.50;146621;591;46020;-65
2023/01/03 03:58:03;;;;;;;;;17.25;14.25;;;;;4.18;74.40;102237.44;146616;691;46017;-65
2023/01/03 04:01:27;;;;;;;;;18.50;14.00;;;;;4.12;75.14;102245.44;146617;590;46014;-66
2023/01/03 04:04:35;;;;;;;;;12.75;12.50;;;;;4.10;74.85;102242.69;146616;602;46921;-68
2023/01/03 04:07:55;;;;;;;;;13.25;10.00;;;;;4.11;75.18;102244.53;146619;579;46010;-66
2023/01/03 04:10:47;;;;;;;;;12.25;9.50;;;;;4.08;75.41;102230.44;146619;592;47012;-66
2023/01/03 04:13:42;;;;;;;;;12.75;10.25;;;;;4.15;75.70;102245.75;146622;631;46021;-66
2023/01/03 04:16:42;;;;;;;;;14.75;10.25;;;;;4.18;75.28;102251.19;146618;694;46014;-65
2023/01/03 04:19:43;;;;;;;;;12.75;11.25;;;;;4.23;75.00;102255.09;146621;697;46010;-66
2023/01/03 04:22:40;;;;;;;;;11.75;8.75;;;;;2.99;75.26;102029.59;146619;624;46016;-66
2023/01/03 04:25:32;;;;;;;;;11.00;10.00;;;;;4.33;75.67;102264.63;146620;637;46020;-67
2023/01/03 04:28:31;;;;;;;;;12.25;9.75;;;;;4.33;75.40;102260.44;146617;638;46013;-66
2023/01/03 04:31:24;;;;;;;;;13.75;12.00;;;;;4.34;74.95;102263.91;146618;609;46020;-66
2023/01/03 04:34:39;;;;;;;;;8.00;8.00;;;;;4.35;74.73;102258.00;146618;584;46033;-66
2023/01/03 04:37:51;;;;;;;;;13.75;11.25;;;;;4.34;76.06;102258.75;146619;586;46014;-67
2023/01/03 04:40:43;;;;;;;;;12.00;9.25;;;;;4.34;75.69;102271.59;146619;616;46012;-66
2023/01/03 04:44:04;;;;;;;;;16.50;11.00;;;;;4.32;75.44;102275.66;146619;582;47021;-67
2023/01/03 04:47:09;;;;;;;;;11.25;9.75;;;;;2.88;75.81;102012.25;146620;572;45024;-66
2023/01/03 04:50:04;;;;;;;;;22.00;19.50;;;;;4.33;75.24;102280.03;146622;569;46015;-66
2023/01/03 04:53:13;;;;;;;;;14.75;12.00;;;;;4.29;76.08;102281.41;146617;605;46016;-67
2023/01/03 04:56:30;;;;;;;;;9.75;9.75;;;;;4.25;75.77;102279.28;146618;685;46021;-66
2023/01/03 04:59:42;;;;;;;;;13.00;13.00;;;;;4.22;75.71;102289.25;146617;620;46012;-67
2023/01/03 05:02:34;;;;;;;;;16.50;12.50;;;;;4.15;75.74;102285.16;146617;572;46010;-66
2023/01/03 05:05:31;;;;;;;;;23.75;17.50;;;;;4.12;76.34;102289.06;146618;604;46017;-66
2023/01/03 05:08:26;;;;;;;;;19.25;18.75;;;;;4.12;76.67;102287.41;146621;566;46014;-66
2023/01/03 05:11:31;;;;;;;;;21.50;17.50;;;;;0.78;76.75;101696.34;146616;709;46017;-66
2023/01/03 05:14:26;;;;;;;;;22.75;18.75;;;;;4.08;77.27;102297.19;146623;564;45021;-67
2023/01/03 05:17:29;;;;;;;;;18.75;17.00;;;;;4.08;77.63;102280.16;146619;630;46012;-66
2023/01/03 05:26:58;;;;;;;;;26.00;19.75;;;;;4.13;77.52;102284.06;146620;639;46011;-68
2023/01/03 05:29:58;;;;;;;;;22.00;18.25;;;;;4.18;78.22;102286.22;146620;603;46012;-66
2023/01/03 05:32:55;;;;;;;;;20.50;16.75;;;;;4.21;78.73;102290.00;146616;647;46021;-66
2023/01/03 05:36:03;;;;;;;;;18.00;16.00;;;;;1.23;77.94;101747.88;146633;704;45914;-67
2023/01/03 05:39:00;;;;;;;;;16.75;14.00;;;;;4.27;78.10;102288.06;146638;652;45020;-67
2023/01/03 05:42:02;;;;;;;;;14.00;14.00;;;;;4.32;78.41;102283.38;146632;609;46014;-66
2023/01/03 05:44:59;;;;;;;;;17.75;14.75;;;;;4.42;78.60;102280.06;146633;722;46010;-67
2023/01/03 05:47:53;;;;;;;;;12.25;11.50;;;;;4.52;78.08;102281.16;146633;573;46015;-67
2023/01/03 05:50:51;;;;;;;;;16.50;13.75;;;;;4.58;78.16;102286.00;146637;623;45011;-66
2023/01/03 05:53:50;;;;;;;;;23.50;18.75;;;;;4.62;77.41;102290.69;146632;638;46012;-69
2023/01/03 05:56:42;;;;;;;;;36.25;29.25;;;;;4.66;77.19;102289.34;146634;565;45020;-68
2023/01/03 05:59:37;;;;;;;;;187.25;135.50;;;;;4.68;76.87;102300.69;146635;633;45016;-68
2023/01/03 06:02:36;;;;;;;;;305.25;228.00;;;;;4.67;76.37;102297.16;146645;572;45010;-68
2023/01/03 06:05:32;;;;;;;;;120.67;95.67;;;;;3.73;75.74;102127.72;146643;606;44043;-66
2023/01/03 06:08:32;;;;;;;;;41.75;36.00;;;;;4.70;75.89;102292.34;146640;586;45010;-68
2023/01/03 06:11:48;;;;;;;;;;;;;;;;;;;;;
2023/01/03 06:14:47;;;;;;;;;70.00;52.50;;;;;4.72;75.01;102300.22;146638;620;45020;-68
2023/01/03 06:17:56;;;;;;;;;59.75;44.75;;;;;4.71;75.24;102308.69;146635;563;45915;-68
2023/01/03 06:20:48;;;;;;;;;42.50;32.75;;;;;4.70;75.51;102305.19;146638;622;45010;-68
2023/01/03 06:23:54;;;;;;;;;46.75;37.00;;;;;4.67;75.44;102301.41;146635;581;45915;-69
2023/01/03 06:26:49;;;;;;;;;31.75;27.75;;;;;4.63;74.71;102305.34;146637;619;45010;-69
2023/01/03 06:29:42;;;;;;;;;28.00;23.50;;;;;4.63;75.14;102307.91;146632;636;46914;-67
2023/01/03 06:32:42;;;;;;;;;21.75;20.50;;;;;4.65;75.46;102308.97;146634;604;46010;-69
2023/01/03 06:35:51;;;;;;;;;13.75;11.75;;;;;4.64;75.97;102314.84;146617;582;47012;-68
2023/01/03 06:38:46;;;;;;;;;19.00;11.50;;;;;4.62;76.08;102307.00;146618;588;47010;-68
2023/01/03 06:41:51;;;;;;;;;15.75;14.00;;;;;4.66;76.50;102315.03;146615;603;46915;-69
2023/01/03 06:53:10;;;;;;;;;15.50;14.25;;;;;4.92;79.32;102310.81;146620;563;46010;-70
2023/01/03 06:54:47;;;;;;;;;25.00;22.75;;;;;7.42;79.14;102311.19;146616;603;46016;-69
2023/01/03 06:57:40;;;;;;;;;23.75;22.75;;;;;8.21;76.51;102306.91;146622;583;46020;-69
2023/01/03 07:00:37;;;;;;;;;15.25;15.00;;;;;9.08;75.32;102315.06;146619;593;46014;-70
2023/01/03 07:03:39;;;;;;;;;16.00;16.00;;;;;10.01;72.92;102306.19;146618;565;46021;-70
2023/01/03 07:06:43;;;;;;;;;25.00;21.75;;;;;11.02;70.76;102308.75;146618;587;46012;-70
2023/01/03 07:09:46;;;;;;;;;36.25;31.75;;;;;12.13;66.08;102304.69;146620;562;46021;-71
2023/01/03 07:15:55;;;;;;;;;52.25;41.25;;;;;14.23;58.25;102308.13;146622;647;46020;-71
2023/01/03 07:18:50;;;;;;;;;66.00;51.25;;;;;15.03;54.61;102295.56;146617;569;46017;-72
2023/01/03 07:21:45;;;;;;;;;74.25;63.00;;;;;15.73;53.28;102301.28;146622;588;46010;-72
2023/01/03 07:24:37;;;;;;;;;76.67;63.00;;;;;16.34;49.87;102306.34;146616;586;46016;-70
2023/01/03 07:27:37;;;;;;;;;72.00;57.75;;;;;16.81;49.02;102300.09;146622;613;46010;-70
2023/01/03 07:30:31;;;;;;;;;69.50;52.00;;;;;17.17;46.65;102294.91;146615;630;46016;-70
2023/01/03 07:33:38;;;;;;;;;59.00;45.50;;;;;14.83;47.06;101849.56;146624;715;45030;-70
2023/01/03 07:36:46;;;;;;;;;56.00;45.00;;;;;17.31;45.89;102286.88;146612;578;46014;-74
2023/01/03 07:39:49;;;;;;;;;57.50;44.50;;;;;17.22;46.91;102282.91;146614;605;46020;-70
2023/01/03 07:46:18;;;;;;;;;;;;;;;;;;;;;
2023/01/03 07:49:13;;;;;;;;;57.75;45.00;;;;;16.75;42.77;102281.41;146609;606;46913;-72
2023/01/03 07:52:05;;;;;;;;;63.50;46.75;;;;;16.12;44.63;102283.38;146612;607;46020;-69
2023/01/03 07:55:20;;;;;;;;;61.50;49.25;;;;;15.56;47.81;102283.75;146611;636;46017;-68
2023/01/03 07:58:15;;;;;;;;;61.50;47.50;;;;;15.06;47.12;102285.28;146612;649;46020;-68
2023/01/03 08:01:12;;;;;;;;;63.25;50.00;;;;;14.64;48.64;102281.97;146611;663;46016;-67
2023/01/03 08:04:04;;;;;;;;;64.25;50.25;;;;;14.22;49.19;102277.63;146611;564;46014;-69
2023/01/03 08:06:58;;;;;;;;;60.50;47.25;;;;;13.82;50.29;102275.16;146613;564;46016;-69
2023/01/03 08:13:18;;;;;;;;;61.75;49.50;;;;;13.25;52.79;102287.19;146609;569;47012;-70
2023/01/03 08:16:21;;;;;;;;;61.50;49.00;;;;;13.07;53.85;102276.41;146615;582;46020;-70
2023/01/03 08:19:14;;;;;;;;;55.00;44.75;;;;;12.93;54.24;102278.13;146613;619;46012;-69
2023/01/03 08:22:09;;;;;;;;;53.25;42.00;;;;;12.89;55.11;102283.91;146613;577;46020;-70
2023/01/03 08:25:04;;;;;;;;;48.00;39.75;;;;;12.97;56.80;102276.63;146608;582;46017;-70
2023/01/03 08:28:05;;;;;;;;;50.25;39.75;;;;;13.14;56.46;102282.91;146613;647;46020;-70
2023/01/03 08:31:06;;;;;;;;;51.25;41.00;;;;;13.31;56.58;102284.06;146613;624;46016;-70
2023/01/03 08:34:07;;;;;;;;;48.00;37.00;;;;;13.48;56.00;102287.75;146613;649;46021;-71
2023/01/03 08:37:13;;;;;;;;;43.00;35.00;;;;;13.52;56.56;102281.94;146612;574;46012;-69
2023/01/03 08:40:17;;;;;;;;;46.75;37.75;;;;;13.63;56.27;102292.25;146610;574;46020;-69
2023/01/03 08:43:11;;;;;;;;;53.75;42.25;;;;;13.78;55.41;102283.59;146612;627;46016;-70
2023/01/03 08:46:06;;;;;;;;;50.75;41.50;;;;;13.88;56.24;102279.88;146615;570;46010;-70
2023/01/03 08:49:11;;;;;;;;;53.25;40.50;;;;;14.02;56.57;102285.16;146609;613;46021;-70
2023/01/03 08:52:06;;;;;;;;;58.50;45.75;;;;;14.24;55.82;102281.25;146613;631;46010;-69
2023/01/03 08:55:01;;;;;;;;;56.00;44.75;;;;;14.39;55.02;102271.75;146611;633;46013;-69
2023/01/03 08:58:03;;;;;;;;;54.50;43.00;;;;;14.40;53.97;102272.66;146614;563;46020;-68
2023/01/03 09:00:56;;;;;;;;;47.75;40.00;;;;;14.32;53.94;102269.56;146608;588;47012;-69
2023/01/03 09:03:51;;;;;;;;;51.00;40.75;;;;;14.30;54.88;102268.59;146613;589;46028;-69
2023/01/03 09:06:48;;;;;;;;;51.75;42.75;;;;;14.31;55.75;102268.66;146612;619;46016;-69
2023/01/03 09:09:40;;;;;;;;;55.00;44.00;;;;;14.35;55.80;102264.53;146615;758;46021;-69
2023/01/03 09:12:35;;;;;;;;;54.25;42.75;;;;;14.42;56.30;102260.56;146612;696;46012;-72
2023/01/03 09:15:29;;;;;;;;;54.25;43.00;;;;;14.50;56.00;102256.72;146614;590;46020;-70
2023/01/03 09:18:39;;;;;;;;;50.75;40.00;;;;;14.57;56.65;102252.78;146609;626;48016;-69
2023/01/03 09:21:43;;;;;;;;;56.00;44.00;;;;;14.62;56.62;102253.97;146616;609;46020;-71
2023/01/03 09:24:58;;;;;;;;;45.50;38.00;;;;;14.67;55.88;102249.91;146610;649;46016;-71
2023/01/03 09:27:54;;;;;;;;;48.25;37.75;;;;;14.68;54.61;102244.78;146613;581;46020;-71
2023/01/03 09:30:55;;;;;;;;;45.50;37.25;;;;;14.65;54.72;102244.59;146612;571;46021;-70
2023/01/03 09:33:49;;;;;;;;;46.00;35.75;;;;;14.60;54.73;102240.81;146614;565;46010;-70
2023/01/03 09:36:53;;;;;;;;;43.00;35.00;;;;;14.54;54.83;102230.91;146615;566;46012;-69
2023/01/03 09:39:59;;;;;;;;;34.75;30.00;;;;;14.58;54.92;102226.78;146615;630;46011;-70
2023/01/03 09:43:14;;;;;;;;;37.00;31.50;;;;;14.62;55.40;102222.66;146613;570;46016;-69
2023/01/03 09:46:06;;;;;;;;;45.00;36.50;;;;;14.71;54.30;102218.88;146614;630;46020;-69
2023/01/03 09:49:03;;;;;;;;;45.00;36.00;;;;;14.77;54.23;102220.94;146611;613;45915;-69
2023/01/03 10:06:53;;;;;;;;;41.00;34.75;;;;;15.30;55.26;102193.44;146611;581;46031;-68
2023/01/03 10:10:28;;;;;;;;;37.25;31.50;;;;;12.64;54.31;101713.19;146613;570;46017;-70
2023/01/03 10:13:56;;;;;;;;;31.25;26.50;;;;;15.39;54.68;102178.25;146613;679;46010;-70
2023/01/03 10:17:48;;;;;;;;;33.00;28.25;;;;;15.40;53.82;102175.72;146613;634;46013;-69
2023/01/03 10:21:02;;;;;;;;;30.25;25.50;;;;;15.41;52.94;102167.06;146614;600;46020;-69
2023/01/03 10:24:36;;;;;;;;;29.50;27.75;;;;;15.44;52.60;102156.78;146610;621;47013;-69
2023/01/03 10:27:58;;;;;;;;;32.00;28.75;;;;;15.48;51.88;102161.38;146615;601;46020;-69
2023/01/03 10:31:38;;;;;;;;;33.75;28.75;;;;;12.96;56.31;101676.03;146611;625;46013;-68
2023/01/03 10:34:34;;;;;;;;;29.25;28.00;;;;;15.96;52.46;102147.34;146618;684;46010;-68
2023/01/03 10:37:38;;;;;;;;;37.25;30.75;;;;;16.12;51.84;102140.34;146617;670;46013;-69
2023/01/03 10:40:56;;;;;;;;;30.50;28.00;;;;;13.53;52.50;101660.97;146619;563;46010;-69
2023/01/03 10:44:03;;;;;;;;;38.25;30.75;;;;;14.89;52.67;101887.37;146620;573;46012;-70
2023/01/03 10:47:23;;;;;;;;;32.75;29.00;;;;;16.40;51.83;102128.66;146619;585;46020;-69
2023/01/03 10:50:28;;;;;;;;;44.25;34.50;;;;;16.53;51.62;102117.06;146618;603;46016;-68
2023/01/03 10:53:43;;;;;;;;;45.50;34.50;;;;;16.50;54.52;102094.25;146621;564;46020;-69
2023/01/03 10:56:52;;;;;;;;;37.00;32.00;;;;;16.82;49.65;102121.13;146616;588;46016;-68
2023/01/03 11:00:05;;;;;;;;;;;;;;;;;;;;;
2023/01/03 11:03:07;;;;;;;;;43.75;35.75;;;;;17.03;49.32;102102.91;146616;567;46012;-69
2023/01/03 11:06:23;;;;;;;;;47.25;37.00;;;;;14.39;52.28;101624.62;146621;589;46014;-69
2023/01/03 11:09:18;;;;;;;;;44.00;36.75;;;;;17.13;50.01;102098.97;146616;601;46012;-68
2023/01/03 11:12:46;;;;;;;;;45.00;35.50;;;;;17.09;51.30;102103.19;146620;581;46020;-71
2023/01/03 11:15:45;;;;;;;;;33.75;30.00;;;;;17.05;48.80;102093.41;146615;564;46017;-69
2023/01/03 11:18:37;;;;;;;;;38.00;31.50;;;;;17.04;49.79;102089.88;146621;563;46010;-69
2023/01/03 11:22:00;;;;;;;;;36.75;30.00;;;;;17.15;52.01;102086.88;146615;614;47018;-68
2023/01/03 11:25:43;;;;;;;;;37.00;29.50;;;;;14.69;50.69;101625.25;146620;602;46020;-70
2023/01/03 11:29:12;;;;;;;;;28.25;27.75;;;;;17.35;50.89;102078.16;146614;596;46016;-68
2023/01/03 11:32:54;;;;;;;;;30.50;28.50;;;;;17.33;49.57;102069.34;146620;601;46020;-68
2023/01/03 11:36:38;;;;;;;;;32.75;28.50;;;;;17.26;50.92;102085.62;146614;598;46016;-69
2023/01/03 11:40:28;;;;;;;;;;;;;;;;;;;;;
2023/01/03 11:43:36;;;;;;;;;36.75;31.25;;;;;17.26;48.00;102048.94;146708;565;46015;-70
2023/01/03 11:46:55;;;;;;;;;37.75;33.00;;;;;17.28;50.65;102039.41;146616;595;46016;-70
2023/01/03 11:50:37;;;;;;;;;33.00;29.00;;;;;17.40;50.39;102039.94;146622;643;46020;-69
2023/01/03 11:54:16;;;;;;;;;39.25;31.25;;;;;16.17;50.75;101792.56;146618;590;46012;-69
2023/01/03 11:57:42;;;;;;;;;37.50;29.75;;;;;17.63;48.08;102022.63;146622;622;46020;-68
2023/01/03 12:01:26;;;;;;;;;42.25;32.50;;;;;15.52;49.81;101630.88;146619;633;46012;-69
2023/01/03 12:05:23;;;;;;;;;45.25;35.50;;;;;16.67;50.07;101801.75;146622;571;46010;-68
2023/01/03 12:08:47;;;;;;;;;43.25;34.00;;;;;15.89;50.09;101631.72;146616;583;46016;-68
2023/01/03 12:12:18;;;;;;;;;45.25;37.25;;;;;16.91;49.36;101782.69;146621;594;46010;-68
2023/01/03 12:15:49;;;;;;;;;41.25;33.75;;;;;18.31;49.00;102004.44;146616;595;46917;-68
2023/01/03 12:19:26;;;;;;;;;;;;;;;;;;;;;
2023/01/03 12:22:45;;;;;;;;;42.50;36.25;;;;;18.66;48.10;102000.56;146616;620;47014;-69
2023/01/03 12:25:55;;;;;;;;;42.75;33.00;;;;;18.73;48.92;101994.75;146619;618;46020;-67
2023/01/03 12:29:32;;;;;;;;;39.50;33.00;;;;;18.82;48.14;102000.38;146614;616;46017;-67
2023/01/03 12:33:01;;;;;;;;;35.25;30.50;;;;;18.97;47.95;101980.72;146623;655;46020;-69
2023/01/03 12:36:46;;;;;;;;;35.50;31.00;;;;;17.95;49.28;101763.31;146619;613;46016;-69
2023/01/03 12:40:05;;;;;;;;;33.00;31.00;;;;;19.40;47.30;101983.16;146622;610;46020;-67
2023/01/03 12:43:32;;;;;;;;;32.50;29.00;;;;;19.57;48.04;101982.03;146619;749;46012;-67
2023/01/03 12:46:55;;;;;;;;;33.75;31.25;;;;;18.55;49.12;101771.63;146622;632;46010;-68
2023/01/03 12:50:53;;;;;;;;;;;;;;;;;;;;;
2023/01/03 12:54:29;;;;;;;;;32.25;29.00;;;;;18.57;47.19;101761.19;146621;563;46020;-69
2023/01/03 12:58:05;;;;;;;;;22.00;22.00;;;;;19.76;46.89;101965.16;146617;639;46016;-69
2023/01/03 13:01:08;;;;;;;;;35.50;29.75;;;;;19.66;46.08;101970.97;146621;570;46020;-67
2023/01/03 13:04:14;;;;;;;;;37.75;30.50;;;;;19.65;47.62;101973.53;146616;709;46016;-68
2023/01/03 13:07:26;;;;;;;;;28.00;27.00;;;;;19.70;48.45;101971.97;146618;606;47012;-66
2023/01/03 13:10:42;;;;;;;;;37.00;31.00;;;;;19.73;49.17;101961.53;146617;563;46016;-69
2023/01/03 13:14:05;;;;;;;;;38.25;32.50;;;;;17.93;48.53;101639.03;146623;569;46021;-67
2023/01/03 13:17:09;;;;;;;;;37.75;30.25;;;;;19.91;46.90;101979.69;146616;694;46912;-69
2023/01/03 13:20:28;;;;;;;;;29.25;24.25;;;;;20.05;48.02;101971.38;146622;688;46010;-68
2023/01/03 13:24:07;;;;;;;;;27.00;26.50;;;;;20.19;50.90;101968.31;146618;582;46012;-68
2023/01/03 13:27:35;;;;;;;;;30.00;28.75;;;;;20.22;49.93;101981.59;146616;596;46020;-68
2023/01/03 13:30:40;;;;;;;;;36.00;30.25;;;;;20.24;47.86;101969.31;146611;564;46018;-68
2023/01/03 13:34:00;;;;;;;;;31.25;29.00;;;;;20.21;48.02;101966.59;146617;629;46029;-69
2023/01/03 13:37:46;;;;;;;;;27.25;24.00;;;;;19.12;49.52;101761.34;146618;579;46012;-69
2023/01/03 13:41:02;;;;;;;;;29.25;27.25;;;;;20.33;47.77;101966.09;146619;576;46010;-70
2023/01/03 13:44:01;;;;;;;;;31.25;29.25;;;;;20.35;46.90;101973.22;146634;589;45012;-71
2023/01/03 13:47:02;;;;;;;;;39.75;31.75;;;;;20.33;45.85;101964.34;146635;661;45020;-70
2023/01/03 13:50:00;;;;;;;;;36.75;31.50;;;;;20.27;46.44;101954.50;146635;622;45013;-70
2023/01/03 13:53:30;;;;;;;;;36.50;29.75;;;;;20.38;48.87;101960.13;146633;563;45030;-69
2023/01/03 13:56:56;;;;;;;;;34.25;30.00;;;;;20.50;49.07;101967.53;146636;564;45012;-68
2023/01/03 14:00:11;;;;;;;;;38.75;31.25;;;;;19.48;46.94;101794.06;146628;575;46010;-70
2023/01/03 14:03:41;;;;;;;;;36.50;31.75;;;;;20.37;49.66;101962.69;146620;633;46016;-70
2023/01/03 14:07:19;;;;;;;;;38.00;32.50;;;;;18.00;49.33;101573.69;146633;570;46012;-69
2023/01/03 14:11:00;;;;;;;;;35.50;30.50;;;;;18.79;49.48;101741.84;146633;565;45016;-70
2023/01/03 14:14:05;;;;;;;;;39.50;34.50;;;;;19.83;46.22;101961.00;146635;628;45010;-68
2023/01/03 14:17:08;;;;;;;;;45.25;37.25;;;;;19.62;47.75;101959.41;146633;583;45016;-69
2023/01/03 14:20:08;;;;;;;;;47.50;38.50;;;;;19.46;46.45;101961.47;146634;629;45019;-70
2023/01/03 14:23:12;;;;;;;;;45.50;38.50;;;;;19.29;48.68;101953.00;146631;604;45016;-69
2023/01/03 14:26:16;;;;;;;;;44.00;36.50;;;;;19.13;47.07;101956.81;146635;572;45021;-71
2023/01/03 14:29:19;;;;;;;;;51.25;39.50;;;;;18.93;47.17;101964.84;146628;632;45916;-70
2023/01/03 14:32:30;;;;;;;;;55.50;43.50;;;;;18.73;49.58;101963.22;146634;563;46010;-69
2023/01/03 14:35:48;;;;;;;;;57.00;43.75;;;;;18.52;50.67;101965.00;146629;579;46016;-68
2023/01/03 14:38:51;;;;;;;;;53.50;42.75;;;;;17.14;48.29;101776.72;146634;606;46012;-68
2023/01/03 14:41:50;;;;;;;;;59.50;46.25;;;;;17.92;50.28;101968.78;146625;569;46012;-69
2023/01/03 14:45:09;;;;;;;;;58.25;45.50;;;;;17.55;49.35;101963.69;146618;637;46012;-68
2023/01/03 14:48:21;;;;;;;;;56.50;45.25;;;;;17.16;50.27;101968.06;146615;566;46017;-68
2023/01/03 14:51:20;;;;;;;;;60.25;47.75;;;;;16.82;51.32;101979.66;146617;609;46010;-69
2023/01/03 14:54:27;;;;;;;;;59.25;46.25;;;;;16.50;52.53;101978.16;146617;593;46012;-70
2023/01/03 14:57:58;;;;;;;;;;;;;;;;;;;;;
2023/01/03 15:00:57;;;;;;;;;62.50;49.00;;;;;15.82;52.47;101973.97;146616;654;46016;-69
2023/01/03 15:04:00;;;;;;;;;60.25;47.00;;;;;15.53;53.23;101977.72;146615;581;48011;-68
2023/01/03 15:07:08;;;;;;;;;58.75;46.75;;;;;15.23;54.87;101980.53;146619;615;46012;-68
2023/01/03 15:10:21;;;;;;;;;65.25;51.75;;;;;14.93;55.49;101983.34;146623;565;46010;-69
2023/01/03 15:14:07;;;;;;;;;63.75;50.25;;;;;13.40;56.30;101769.72;146618;632;46028;-70
2023/01/03 15:17:24;;;;;;;;;68.50;51.25;;;;;12.91;57.12;101737.31;146623;585;45020;-69
2023/01/03 15:20:27;;;;;;;;;55.75;45.75;;;;;14.08;57.15;101979.44;146617;604;46016;-69
2023/01/03 15:24:09;;;;;;;;;;;;;;;;;;;;;
2023/01/03 15:27:02;;;;;;;;;55.50;44.75;;;;;13.45;59.35;101981.00;146615;566;46017;-69
2023/01/03 15:29:57;;;;;;;;;64.00;50.50;;;;;13.16;60.10;101984.44;146622;569;46020;-71
2023/01/03 15:33:33;;;;;;;;;69.25;52.00;;;;;11.40;60.31;101714.28;146618;610;46013;-69
2023/01/03 15:36:40;;;;;;;;;70.50;56.25;;;;;12.65;61.33;101996.03;146622;684;46012;-69
2023/01/03 15:40:04;;;;;;;;;66.75;51.00;;;;;12.41;61.57;101990.16;146615;693;46016;-69
2023/01/03 15:46:26;;;;;;;;;67.75;51.25;;;;;10.55;62.55;101728.63;146611;581;46016;-69